Time;durP1;ratioP1;P1;durP2;ratioP2;P2;SDS_P1;SDS_P2;PMS_P1;PMS_P2;Temp;Humidity;BMP_temperature;BMP_pressure;BME280_temperature;BME280_humidity;BME280_pressure;Samples;Min_cycle;Max_cycle;Signal;HPM_P1;HPM_P2
2022/12/15 00:41:01;;;;;;;17.88;6.88;;;;;;;;;;5101840;27;20685;-78
2022/12/15 00:43:27;;;;;;;14.38;7.35;;;;;;;;;;5104544;28;20031;-78
2022/12/15 00:48:38;;;;;;;12.55;7.05;;;;;;;;;;5101178;28;20548;-79
2022/12/15 00:51:04;;;;;;;15.52;6.90;;;;;;;;;;5097084;28;20019;-79
2022/12/15 01:21:04;;;;;;;14.55;6.15;;;;;;;;;;5098843;28;20489;-78
2022/12/15 01:23:30;;;;;;;15.65;8.95;;;;;;;;;;5097630;28;20040;-79
2022/12/15 01:25:56;;;;;;;18.52;8.27;;;;;;;;;;5101381;28;20479;-79
2022/12/15 01:28:23;;;;;;;13.32;7.18;;;;;;;;;;5103357;28;20066;-78
2022/12/15 01:30:49;;;;;;;18.60;8.65;;;;;;;;;;5098979;28;20031;-78
2022/12/15 01:33:16;;;;;;;11.80;7.43;;;;;;;;;;5097711;28;20571;-79
2022/12/15 01:35:42;;;;;;;11.02;6.25;;;;;;;;;;5113185;28;20027;-77
2022/12/15 01:38:09;;;;;;;14.07;7.35;;;;;;;;;;5118517;27;20036;-77
2022/12/15 01:40:43;;;;;;;20.35;7.28;;;;;;;;;;5120703;27;20049;-78
2022/12/15 01:43:14;;;;;;;12.05;7.57;;;;;;;;;;5112526;27;20027;-78
2022/12/15 01:45:46;;;;;;;12.38;6.90;;;;;;;;;;5103808;27;20038;-79
2022/12/15 01:48:13;;;;;;;16.65;8.63;;;;;;;;;;5104998;27;20028;-78
2022/12/15 01:50:41;;;;;;;17.23;8.43;;;;;;;;;;5106860;27;20542;-78
2022/12/15 01:53:08;;;;;;;15.95;9.25;;;;;;;;;;5104327;27;20039;-78
2022/12/15 01:55:34;;;;;;;16.60;7.38;;;;;;;;;;5108405;27;20362;-79
2022/12/15 01:58:02;;;;;;;12.52;6.88;;;;;;;;;;5103375;28;20031;-78
2022/12/15 02:00:29;;;;;;;7.57;6.50;;;;;;;;;;5102803;27;20101;-78
2022/12/15 02:02:55;;;;;;;11.90;7.03;;;;;;;;;;5096503;27;20024;-79
2022/12/15 02:05:21;;;;;;;9.88;6.05;;;;;;;;;;5100582;27;20084;-78
2022/12/15 02:07:47;;;;;;;17.70;8.02;;;;;;;;;;5092893;27;20548;-78
2022/12/15 02:10:13;;;;;;;25.08;10.82;;;;;;;;;;5102041;27;20106;-78
2022/12/15 02:12:39;;;;;;;17.85;8.50;;;;;;;;;;5098331;28;20035;-78
2022/12/15 02:15:26;;;;;;;14.63;8.35;;;;;;;;;;5103060;27;20552;-79
2022/12/15 02:18:07;;;;;;;20.05;8.10;;;;;;;;;;5094688;27;20057;-79
2022/12/15 02:20:37;;;;;;;12.57;6.07;;;;;;;;;;5106225;27;20031;-79
2022/12/15 02:23:19;;;;;;;16.50;7.80;;;;;;;;;;5105511;27;20115;-78
2022/12/15 02:26:04;;;;;;;12.60;8.77;;;;;;;;;;5100958;27;20068;-78
2022/12/15 02:28:49;;;;;;;13.35;6.43;;;;;;;;;;5091091;27;20032;-79
2022/12/15 02:34:08;;;;;;;10.70;5.35;;;;;;;;;;5096989;28;20066;-79
2022/12/15 02:36:39;;;;;;;12.75;6.43;;;;;;;;;;5103417;27;20023;-79
2022/12/15 02:39:05;;;;;;;16.63;8.70;;;;;;;;;;5103137;27;20028;-79
2022/12/15 02:41:36;;;;;;;10.43;5.70;;;;;;;;;;5110084;27;20023;-78
2022/12/15 02:44:06;;;;;;;15.75;7.68;;;;;;;;;;5104581;27;20042;-78
2022/12/15 02:46:45;;;;;;;12.95;7.70;;;;;;;;;;5093288;28;20023;-79
2022/12/15 02:49:11;;;;;;;15.30;7.50;;;;;;;;;;5089990;27;20115;-78
2022/12/15 02:51:56;;;;;;;12.32;7.68;;;;;;;;;;5103795;28;20142;-78
2022/12/15 02:54:38;;;;;;;14.95;6.38;;;;;;;;;;5105550;27;20118;-79
2022/12/15 02:57:04;;;;;;;14.30;8.70;;;;;;;;;;5099352;27;20035;-78
2022/12/15 02:59:47;;;;;;;12.02;7.15;;;;;;;;;;5103176;27;20273;-78
2022/12/15 03:02:13;;;;;;;11.25;5.93;;;;;;;;;;5105894;27;20032;-78
2022/12/15 03:04:42;;;;;;;11.45;6.72;;;-2.30;99.90;;;;;;5100309;27;20146;-79
2022/12/15 03:07:09;;;;;;;12.68;6.60;;;;;;;;;;5103538;27;20533;-78
2022/12/15 03:09:35;;;;;;;14.00;8.20;;;;;;;;;;5096248;28;20160;-78
2022/12/15 03:12:01;;;;;;;16.20;7.78;;;;;;;;;;5100841;27;20516;-79
2022/12/15 03:14:27;;;;;;;18.73;8.32;;;;;;;;;;5105096;28;20058;-79
2022/12/15 03:16:53;;;;;;;12.77;6.32;;;;;;;;;;5104197;27;20027;-79
2022/12/15 03:19:19;;;;;;;12.68;6.93;;;;;;;;;;5103128;28;20042;-78
2022/12/15 03:21:45;;;;;;;12.07;8.25;;;;;;;;;;5103370;27;20097;-79
2022/12/15 03:24:11;;;;;;;19.05;8.95;;;;;;;;;;5101008;27;20069;-80
2022/12/15 03:26:37;;;;;;;11.27;6.45;;;;;;;;;;5096169;27;20020;-79
2022/12/15 03:29:03;;;;;;;20.50;10.80;;;;;;;;;;5099401;27;20023;-79
2022/12/15 03:31:29;;;;;;;14.10;7.50;;;;;;;;;;5108349;27;20038;-78
2022/12/15 03:33:56;;;;;;;15.93;7.55;;;;;;;;;;5100633;28;20020;-78
2022/12/15 03:36:22;;;;;;;14.18;7.78;;;;;;;;;;5107684;27;20035;-79
2022/12/15 03:38:48;;;;;;;18.83;8.43;;;;;;;;;;5093025;27;20274;-79
2022/12/15 03:41:14;;;;;;;13.18;6.68;;;;;;;;;;5105882;27;20027;-79
2022/12/15 03:43:40;;;;;;;19.73;9.18;;;;;;;;;;5107340;27;20027;-79
2022/12/15 03:46:06;;;;;;;14.77;7.95;;;;;;;;;;5105351;28;21193;-78
2022/12/15 03:48:32;;;;;;;23.75;10.45;;;;;;;;;;5103973;27;20042;-79
2022/12/15 03:50:58;;;;;;;14.02;7.50;;;;;;;;;;5102929;28;20069;-79
2022/12/15 03:53:24;;;;;;;16.50;8.85;;;-1.80;99.90;;;;;;5107632;27;20042;-79
2022/12/15 03:55:50;;;;;;;14.50;8.45;;;;;;;;;;5099081;27;20031;-78
2022/12/15 03:58:16;;;;;;;15.15;8.30;;;;;;;;;;5097670;27;20050;-79
2022/12/15 04:00:42;;;;;;;15.80;8.38;;;;;;;;;;5101719;27;20518;-79
2022/12/15 04:03:10;;;;;;;16.40;8.50;;;;;;;;;;5095192;27;20023;-79
2022/12/15 04:05:37;;;;;;;18.02;7.65;;;;;;;;;;5104373;27;20068;-79
2022/12/15 04:08:03;;;;;;;19.77;9.05;;;;;;;;;;5096944;27;20028;-79
2022/12/15 04:10:31;;;;;;;17.30;6.97;;;;;;;;;;5100780;28;20027;-79
2022/12/15 04:12:57;;;;;;;18.83;8.82;;;;;;;;;;5101661;27;20038;-79
2022/12/15 04:15:23;;;;;;;16.95;9.02;;;;;;;;;;5101568;28;20035;-78
2022/12/15 04:17:49;;;;;;;23.95;9.73;;;;;;;;;;5098125;27;20023;-78
2022/12/15 04:20:15;;;;;;;16.48;7.85;;;;;;;;;;5102375;28;20106;-78
2022/12/15 04:22:43;;;;;;;14.35;7.95;;;;;;;;;;5091601;27;20111;-78
2022/12/15 05:33:57;;;;;;;18.70;8.52;;;;;;;;;;5100607;28;20532;-78
2022/12/15 05:36:22;;;;;;;21.40;7.35;;;-2.60;99.90;;;;;;5101521;28;20031;-79
2022/12/15 05:38:49;;;;;;;13.55;8.27;;;;;;;;;;5095503;28;20364;-78
2022/12/15 05:41:15;;;;;;;17.05;9.23;;;;;;;;;;5109555;28;20019;-79
2022/12/15 05:43:41;;;;;;;13.50;6.57;;;-1.70;99.90;;;;;;5092547;28;20031;-79
2022/12/15 05:46:07;;;;;;;22.00;9.27;;;;;;;;;;5098514;28;20368;-78
2022/12/15 05:48:33;;;;;;;16.55;8.80;;;;;;;;;;5088680;28;20035;-79
2022/12/15 05:51:02;;;;;;;15.93;7.13;;;;;;;;;;5098710;28;20120;-79
2022/12/15 05:53:28;;;;;;;17.17;7.80;;;;;;;;;;5091568;28;20039;-78
2022/12/15 05:56:03;;;;;;;18.15;10.25;;;-2.40;99.90;;;;;;5095184;28;20024;-79
2022/12/15 05:58:29;;;;;;;19.48;8.10;;;;;;;;;;5085983;28;20089;-80
2022/12/15 06:01:02;;;;;;;15.38;8.85;;;;;;;;;;5106095;28;20594;-78
2022/12/15 06:03:28;;;;;;;18.10;8.63;;;;;;;;;;5100399;28;20577;-79
2022/12/15 06:05:53;;;;;;;18.02;8.00;;;;;;;;;;5101762;28;20043;-80
2022/12/15 06:08:19;;;;;;;17.60;8.82;;;;;;;;;;5096813;28;20535;-79
2022/12/15 06:10:52;;;;;;;18.25;9.10;;;;;;;;;;5107836;28;20027;-79
2022/12/15 06:13:18;;;;;;;19.63;9.10;;;;;;;;;;5097525;28;20503;-80
2022/12/15 06:15:53;;;;;;;14.98;8.95;;;;;;;;;;5104030;28;20024;-78
2022/12/15 06:18:19;;;;;;;15.50;8.70;;;;;;;;;;5087793;28;20537;-79
2022/12/15 06:20:45;;;;;;;15.88;9.70;;;;;;;;;;5098539;28;20023;-78
2022/12/15 06:23:11;;;;;;;14.35;8.02;;;;;;;;;;5101221;28;20119;-79
2022/12/15 06:25:37;;;;;;;26.05;10.55;;;;;;;;;;5107439;28;20624;-79
2022/12/15 06:28:03;;;;;;;20.50;9.32;;;;;;;;;;5107552;27;20114;-80
2022/12/15 06:30:29;;;;;;;20.15;9.77;;;;;;;;;;5108689;27;20037;-79
2022/12/15 06:32:55;;;;;;;14.48;9.48;;;;;;;;;;5106172;27;20055;-79
2022/12/15 06:35:21;;;;;;;21.48;10.50;;;;;;;;;;5106446;28;20024;-78
2022/12/15 06:37:46;;;;;;;21.40;8.75;;;;;;;;;;5100423;27;20020;-79
2022/12/15 06:40:12;;;;;;;22.65;9.60;;;;;;;;;;5107276;28;20034;-79
2022/12/15 06:42:38;;;;;;;15.10;8.63;;;;;;;;;;5096441;27;20087;-79
2022/12/15 06:45:05;;;;;;;22.58;9.10;;;;;;;;;;5109827;27;20077;-80
2022/12/15 06:47:30;;;;;;;19.52;9.68;;;;;;;;;;5104678;28;20085;-80
2022/12/15 06:49:56;;;;;;;30.00;9.48;;;;;;;;;;5095785;27;20098;-79
2022/12/15 06:52:22;;;;;;;15.93;8.75;;;;;;;;;;5099941;27;20390;-80
2022/12/15 06:54:48;;;;;;;21.38;11.98;;;;;;;;;;5100694;27;20024;-80
2022/12/15 06:57:14;;;;;;;21.13;10.48;;;;;;;;;;5097355;27;20032;-80
2022/12/15 06:59:40;;;;;;;21.77;10.73;;;;;;;;;;5109743;27;20084;-79
2022/12/15 07:02:14;;;;;;;11.90;7.28;;;;;;;;;;5107218;27;20082;-80
2022/12/15 07:04:40;;;;;;;15.98;7.82;;;;;;;;;;5107976;27;20058;-80
2022/12/15 07:07:08;;;;;;;21.88;9.93;;;;;;;;;;5116078;27;20023;-79
2022/12/15 07:09:34;;;;;;;15.45;9.23;;;;;;;;;;5123454;27;20019;-78
2022/12/15 07:12:00;;;;;;;19.52;9.55;;;;;;;;;;5113160;27;20562;-78
2022/12/15 07:14:26;;;;;;;16.23;9.48;;;;;;;;;;5121818;27;20054;-81
2022/12/15 07:16:51;;;;;;;15.70;7.55;;;;;;;;;;5097040;27;20027;-81
2022/12/15 07:19:17;;;;;;;20.50;8.45;;;;;;;;;;5107127;27;20379;-80
2022/12/15 07:21:44;;;;;;;16.65;9.43;;;;;;;;;;5101100;27;20032;-80
2022/12/15 07:24:12;;;;;;;17.95;8.85;;;;;;;;;;5101643;27;20030;-79
2022/12/15 07:26:39;;;;;;;15.80;9.32;;;;;;;;;;5100753;27;20062;-79
2022/12/15 07:29:05;;;;;;;16.38;9.90;;;;;;;;;;5106995;27;20478;-79
2022/12/15 07:31:31;;;;;;;16.10;9.80;;;;;;;;;;5103313;28;20019;-79
2022/12/15 07:33:58;;;;;;;16.38;11.07;;;;;;;;;;5097769;28;20035;-79
2022/12/15 07:36:25;;;;;;;40.55;11.18;;;;;;;;;;5110537;27;20054;-80
2022/12/15 07:38:51;;;;;;;23.45;8.60;;;;;;;;;;5107506;27;20035;-81
2022/12/15 07:41:17;;;;;;;13.52;8.65;;;;;;;;;;5108464;27;20821;-80
2022/12/15 07:43:44;;;;;;;25.30;10.88;;;;;;;;;;5099730;27;20678;-81
2022/12/15 07:46:10;;;;;;;26.25;10.35;;;;;;;;;;5107608;28;20479;-80
2022/12/15 07:48:36;;;;;;;21.13;9.70;;;;;;;;;;5106229;27;20038;-80
2022/12/15 07:51:06;;;;;;;25.25;9.52;;;;;;;;;;5108897;27;20031;-78
2022/12/15 07:53:32;;;;;;;21.13;9.98;;;;;;;;;;5103936;27;20111;-80
2022/12/15 07:55:59;;;;;;;19.20;9.82;;;;;;;;;;5108715;27;20035;-80
2022/12/15 07:58:26;;;;;;;16.30;9.75;;;-2.10;99.90;;;;;;5112119;27;20039;-80
2022/12/15 08:00:53;;;;;;;15.55;8.77;;;;;;;;;;5106728;27;20045;-80
2022/12/15 08:03:19;;;;;;;15.68;9.55;;;;;;;;;;5107908;27;20169;-80
2022/12/15 08:05:45;;;;;;;23.92;9.98;;;;;;;;;;5109520;27;20059;-80
2022/12/15 08:08:11;;;;;;;20.70;9.43;;;;;;;;;;5101805;27;20062;-80
2022/12/15 08:10:41;;;;;;;26.00;12.07;;;;;;;;;;5106924;27;20417;-81
2022/12/15 08:13:07;;;;;;;19.35;10.57;;;;;;;;;;5101968;27;20036;-80
2022/12/15 08:15:36;;;;;;;18.50;8.40;;;;;;;;;;5110652;27;20028;-82
2022/12/15 08:18:02;;;;;;;20.35;9.05;;;;;;;;;;5101232;27;20361;-81
2022/12/15 08:20:29;;;;;;;28.38;10.20;;;;;;;;;;5100830;27;20031;-80
2022/12/15 08:22:56;;;;;;;22.00;10.63;;;;;;;;;;5101878;27;20032;-81
2022/12/15 08:25:21;;;;;;;23.83;9.68;;;;;;;;;;5104200;28;20085;-81
2022/12/15 08:27:50;;;;;;;17.13;10.27;;;;;;;;;;5104569;28;20024;-81
2022/12/15 08:30:17;;;;;;;18.52;9.50;;;;;;;;;;5105522;27;20403;-80
2022/12/15 08:32:43;;;;;;;20.85;11.50;;;;;;;;;;5104259;27;20048;-80
2022/12/15 08:35:09;;;;;;;24.65;10.10;;;;;;;;;;5106288;27;20051;-81
2022/12/15 08:37:35;;;;;;;26.90;11.57;;;;;;;;;;5108387;27;20034;-79
2022/12/15 08:40:02;;;;;;;20.80;9.95;;;;;;;;;;5110118;27;20025;-80
2022/12/15 08:42:32;;;;;;;19.70;11.10;;;;;;;;;;5111017;27;20031;-80
2022/12/15 08:44:58;;;;;;;17.05;7.53;;;;;;;;;;5101974;27;20046;-81
2022/12/15 08:47:24;;;;;;;23.02;9.02;;;;;;;;;;5106726;27;20028;-81
2022/12/15 08:49:51;;;;;;;17.77;9.52;;;;;;;;;;5107954;27;20042;-81
2022/12/15 08:52:17;;;;;;;17.45;9.05;;;;;;;;;;5108074;27;20048;-80
2022/12/15 08:54:43;;;;;;;20.35;8.95;;;;;;;;;;5111313;27;20027;-80
2022/12/15 08:57:09;;;;;;;17.10;9.00;;;;;;;;;;5108750;27;20218;-79
2022/12/15 08:59:35;;;;;;;19.73;11.20;;;;;;;;;;5105955;27;20038;-80
2022/12/15 09:02:01;;;;;;;24.77;11.63;;;;;;;;;;5102167;28;20096;-79
2022/12/15 09:04:27;;;;;;;19.90;8.80;;;;;;;;;;5102042;27;20054;-80
2022/12/15 09:06:53;;;;;;;42.97;16.88;;;;;;;;;;5108050;27;20031;-80
2022/12/15 09:09:19;;;;;;;22.65;11.25;;;;;;;;;;5104768;28;20027;-81
2022/12/15 09:11:45;;;;;;;16.55;10.73;;;;;;;;;;5107365;27;20061;-81
2022/12/15 09:14:11;;;;;;;22.73;11.77;;;;;;;;;;5106155;27;20058;-79
2022/12/15 09:16:37;;;;;;;19.27;9.35;;;;;;;;;;5107482;27;20044;-80
2022/12/15 09:19:03;;;;;;;18.23;9.80;;;;;;;;;;5108274;28;20655;-81
2022/12/15 09:21:30;;;;;;;31.67;12.55;;;;;;;;;;5107102;28;20083;-80
2022/12/15 09:24:00;;;;;;;25.05;11.82;;;;;;;;;;5104183;28;20028;-81
2022/12/15 09:26:26;;;;;;;23.98;10.45;;;;;;;;;;5104948;28;20042;-80
2022/12/15 09:28:53;;;;;;;20.88;10.25;;;;;;;;;;5099348;28;20096;-81
2022/12/15 09:31:21;;;;;;;23.50;12.05;;;;;;;;;;5103384;28;20031;-79
2022/12/15 09:33:48;;;;;;;27.67;11.45;;;;;;;;;;5102479;28;20039;-81
2022/12/15 09:36:14;;;;;;;26.98;12.57;;;;;;;;;;5098126;28;20157;-81
2022/12/15 09:38:41;;;;;;;20.63;11.75;;;;;;;;;;5100561;28;20107;-81
2022/12/15 09:41:09;;;;;;;19.20;8.93;;;;;;;;;;5102456;28;20456;-79
2022/12/15 09:43:35;;;;;;;26.20;12.55;;;;;;;;;;5096622;28;21025;-80
2022/12/15 09:46:05;;;;;;;36.88;16.63;;;;;;;;;;5103588;28;20382;-81
2022/12/15 09:48:41;;;;;;;28.33;13.05;;;;;;;;;;5108243;28;20024;-80
2022/12/15 09:51:10;;;;;;;27.77;11.82;;;;;;;;;;5099848;28;20058;-80
2022/12/15 09:53:36;;;;;;;24.92;11.43;;;;;;;;;;5100261;28;20080;-81
2022/12/15 09:56:07;;;;;;;22.60;11.45;;;-1.10;99.90;;;;;;5103453;28;20031;-82
2022/12/15 09:58:40;;;;;;;20.63;9.05;;;;;;;;;;5103228;27;20057;-80
2022/12/15 10:01:32;;;;;;;18.83;8.27;;;;;;;;;;5107282;27;20130;-80
2022/12/15 10:04:06;;;;;;;18.25;9.50;;;;;;;;;;5100327;27;20122;-81
2022/12/15 10:06:40;;;;;;;25.20;10.63;;;;;;;;;;5104324;27;20134;-81
2022/12/15 10:09:19;;;;;;;21.95;9.82;;;-1.00;99.90;;;;;;5101891;27;20024;-80
2022/12/15 10:11:56;;;;;;;26.58;11.23;;;;;;;;;;5103471;27;20024;-81
2022/12/15 10:14:38;;;;;;;25.55;13.70;;;;;;;;;;5100495;28;20054;-79
2022/12/15 10:17:16;;;;;;;18.17;9.73;;;;;;;;;;5108678;27;20024;-80
2022/12/15 10:19:46;;;;;;;17.15;10.15;;;;;;;;;;5103323;28;20109;-81
2022/12/15 10:22:31;;;;;;;22.02;9.02;;;;;;;;;;5107537;27;20431;-79
2022/12/15 10:25:17;;;;;;;14.73;7.95;;;-2.00;99.90;;;;;;5104902;27;20032;-80
2022/12/15 10:28:22;;;;;;;18.25;8.68;;;-2.30;99.90;;;;;;5100797;28;20021;-79
2022/12/15 10:30:57;;;;;;;24.55;9.18;;;;;;;;;;5103166;28;20115;-79
2022/12/15 10:33:25;;;;;;;12.98;8.05;;;;;;;;;;5106966;28;20039;-79
2022/12/15 10:35:54;;;;;;;15.05;8.68;;;-2.00;99.90;;;;;;5106336;28;20023;-79
2022/12/15 10:38:37;;;;;;;27.63;9.68;;;;;;;;;;5103998;27;20122;-79
2022/12/15 10:41:27;;;;;;;26.17;13.70;;;;;;;;;;5105162;28;20126;-79
2022/12/15 10:43:54;;;;;;;19.55;9.57;;;;;;;;;;5104717;28;20028;-80
2022/12/15 10:46:25;;;;;;;22.55;10.20;;;;;;;;;;5101463;28;20150;-79
2022/12/15 10:48:56;;;;;;;21.40;10.50;;;-2.00;99.90;;;;;;5105220;27;20020;-80
2022/12/15 10:51:22;;;;;;;19.75;9.55;;;;;;;;;;5099126;28;20414;-79
2022/12/15 10:54:03;;;;;;;20.23;9.35;;;;;;;;;;5104379;28;20044;-79
2022/12/15 10:56:29;;;;;;;19.08;10.68;;;;;;;;;;5103483;28;20032;-79
2022/12/15 10:58:56;;;;;;;26.67;10.95;;;;;;;;;;5102738;27;21961;-78
2022/12/15 11:01:26;;;;;;;32.42;13.43;;;;;;;;;;5109081;27;20466;-79
2022/12/15 11:03:53;;;;;;;17.20;8.88;;;;;;;;;;5108564;27;20042;-79
2022/12/15 11:06:24;;;;;;;25.90;12.23;;;-0.90;99.90;;;;;;5104819;27;20042;-80
2022/12/15 11:08:52;;;;;;;23.60;10.90;;;;;;;;;;5101206;27;20031;-80
2022/12/15 11:14:32;;;;;;;20.52;10.50;;;;;;;;;;5105247;27;20959;-80
2022/12/15 11:16:58;;;;;;;18.70;9.07;;;;;;;;;;5091306;28;20023;-80
2022/12/15 11:19:24;;;;;;;16.98;10.18;;;;;;;;;;5109187;28;20057;-81
2022/12/15 11:21:55;;;;;;;17.83;8.23;;;;;;;;;;5110453;27;20023;-80
2022/12/15 11:24:26;;;;;;;32.00;11.43;;;;;;;;;;5100935;27;20032;-81
2022/12/15 11:26:58;;;;;;;21.90;11.60;;;;;;;;;;5110143;27;20027;-81
2022/12/15 11:29:24;;;;;;;23.83;9.88;;;;;;;;;;5105353;27;20107;-81
2022/12/15 11:31:52;;;;;;;26.38;12.02;;;;;;;;;;5105760;27;20042;-81
2022/12/15 11:34:21;;;;;;;19.38;10.27;;;0.70;99.90;;;;;;5106916;28;20039;-79
2022/12/15 11:37:01;;;;;;;19.63;9.35;;;;;;;;;;5105064;28;20519;-80
2022/12/15 11:39:29;;;;;;;31.25;12.30;;;;;;;;;;5100476;27;20447;-79
2022/12/15 11:42:01;;;;;;;24.83;11.40;;;0.80;99.90;;;;;;5105695;27;20032;-80
2022/12/15 11:44:30;;;;;;;20.35;10.60;;;;;;;;;;5100886;28;20043;-80
2022/12/15 11:47:07;;;;;;;20.10;9.32;;;;;;;;;;5106082;28;20027;-81
2022/12/15 11:49:53;;;;;;;24.90;10.85;;;;;;;;;;5102398;27;20452;-81
2022/12/15 11:52:28;;;;;;;21.17;10.23;;;;;;;;;;5104998;27;20040;-81
2022/12/15 11:55:14;;;;;;;25.20;11.07;;;;;;;;;;5104376;27;20110;-80
2022/12/15 11:57:59;;;;;;;23.10;9.93;;;;;;;;;;5104011;27;20019;-81
2022/12/15 12:00:25;;;;;;;27.13;10.93;;;;;;;;;;5100976;27;20066;-81
2022/12/15 12:02:51;;;;;;;24.27;10.20;;;;;;;;;;5102581;28;20055;-80
2022/12/15 12:05:37;;;;;;;21.73;9.88;;;;;;;;;;5103345;27;20474;-80
2022/12/15 12:08:20;;;;;;;24.05;11.30;;;0.60;99.90;;;;;;5104331;27;20106;-80
2022/12/15 12:11:01;;;;;;;24.88;11.63;;;0.90;99.90;;;;;;5099265;28;20035;-80
2022/12/15 12:13:33;;;;;;;22.42;10.63;;;;;;;;;;5105087;27;20050;-81
2022/12/15 12:15:59;;;;;;;22.13;9.70;;;;;;;;;;5109639;28;20042;-80
2022/12/15 12:18:32;;;;;;;25.52;11.48;;;;;;;;;;5107349;27;20028;-81
2022/12/15 12:21:02;;;;;;;16.50;8.93;;;;;;;;;;5099451;28;20034;-80
2022/12/15 12:23:28;;;;;;;21.30;9.80;;;;;;;;;;5092792;27;20391;-80
2022/12/15 12:26:12;;;;;;;20.60;10.52;;;;;;;;;;5101559;28;20028;-80
2022/12/15 12:28:46;;;;;;;24.75;10.57;;;;;;;;;;5090477;27;20154;-82
2022/12/15 12:31:35;;;;;;;21.52;9.50;;;;;;;;;;5113007;27;20024;-80
2022/12/15 12:34:05;;;;;;;29.63;12.05;;;;;;;;;;5080834;28;20166;-79
2022/12/15 12:36:31;;;;;;;27.50;9.95;;;;;;;;;;5095859;28;20023;-80
2022/12/15 12:38:57;;;;;;;20.52;9.73;;;;;;;;;;5106050;27;20047;-79
2022/12/15 12:41:41;;;;;;;23.48;11.25;;;;;;;;;;5106573;27;20027;-81
2022/12/15 12:44:11;;;;;;;18.55;9.65;;;;;;;;;;5095404;28;20089;-80
2022/12/15 12:46:43;;;;;;;18.77;8.68;;;;;;;;;;5099780;27;20028;-79
2022/12/15 12:49:12;;;;;;;17.40;9.07;;;;;;;;;;5095740;28;20118;-80
2022/12/15 12:51:42;;;;;;;26.77;10.88;;;;;;;;;;5107079;28;20031;-80
2022/12/15 12:54:35;;;;;;;27.08;11.52;;;0.60;99.90;;;;;;5114063;27;20106;-81
2022/12/15 12:57:01;;;;;;;;;;;;;;;;;;5110685;28;20049;-79
2022/12/15 12:59:30;;;;;;;18.33;7.90;;;;;;;;;;5119286;27;20350;-79
2022/12/15 13:01:56;;;;;;;23.23;10.60;;;;;;;;;;5108777;27;20077;-81
2022/12/15 13:04:28;;;;;;;23.63;10.35;;;;;;;;;;5096753;28;20071;-80
2022/12/15 13:06:54;;;;;;;23.15;11.00;;;;;;;;;;5098446;28;20024;-80
2022/12/15 13:09:21;;;;;;;26.38;11.52;;;;;;;;;;5099924;27;20031;-82
2022/12/15 13:11:47;;;;;;;22.60;8.63;;;;;;;;;;5098071;28;20036;-80
2022/12/15 13:14:15;;;;;;;20.42;8.95;;;;;;;;;;5103873;28;20189;-80
2022/12/15 13:16:41;;;;;;;31.67;12.15;;;;;;;;;;5107787;27;20023;-82
2022/12/15 13:19:07;;;;;;;25.65;11.65;;;;;;;;;;5105748;28;20734;-81
2022/12/15 13:21:43;;;;;;;23.60;10.25;;;;;;;;;;5108865;28;20020;-81
2022/12/15 13:24:27;;;;;;;18.02;9.90;;;;;;;;;;5105514;28;20122;-82
2022/12/15 13:27:02;;;;;;;29.05;10.68;;;;;;;;;;5106250;28;20543;-81
2022/12/15 13:29:28;;;;;;;18.95;9.52;;;;;;;;;;5097621;28;20032;-81
2022/12/15 13:31:54;;;;;;;24.85;9.90;;;;;;;;;;5107362;28;20055;-82
2022/12/15 13:34:21;;;;;;;30.33;10.73;;;;;;;;;;5110402;28;20043;-81
2022/12/15 13:36:48;;;;;;;23.88;10.82;;;;;;;;;;5111219;28;20023;-82
2022/12/15 13:39:17;;;;;;;21.52;11.13;;;;;;;;;;5109941;28;21312;-82
2022/12/15 13:41:46;;;;;;;25.85;10.90;;;;;;;;;;5104356;28;20056;-80
2022/12/15 13:44:21;;;;;;;18.95;8.90;;;;;;;;;;5105774;28;20020;-83
2022/12/15 13:46:47;;;;;;;20.48;10.00;;;;;;;;;;5108352;27;20038;-81
2022/12/15 13:49:16;;;;;;;26.65;10.43;;;;;;;;;;5111003;28;20046;-81
2022/12/15 13:51:43;;;;;;;25.33;9.82;;;;;;;;;;5108756;28;20024;-81
2022/12/15 13:54:23;;;;;;;25.80;10.35;;;;;;;;;;5111671;27;20039;-82
2022/12/15 13:57:02;;;;;;;15.77;8.95;;;;;;;;;;5115737;27;20032;-81
2022/12/15 13:59:40;;;;;;;20.20;9.55;;;;;;;;;;5109394;28;20028;-80
2022/12/15 14:02:25;;;;;;;21.17;10.32;;;;;;;;;;5099652;27;20047;-80
2022/12/15 14:05:04;;;;;;;19.13;9.63;;;;;;;;;;5104236;27;20085;-81
2022/12/15 14:07:30;;;;;;;23.80;11.77;;;;;;;;;;5101354;27;20595;-80
2022/12/15 14:09:56;;;;;;;25.75;10.35;;;;;;;;;;5104313;27;20111;-80
2022/12/15 14:12:23;;;;;;;17.10;8.50;;;;;;;;;;5104057;27;20048;-81
2022/12/15 14:14:49;;;;;;;23.17;11.25;;;;;;;;;;5101795;27;20161;-80
2022/12/15 14:17:16;;;;;;;24.73;10.35;;;;;;;;;;5107371;27;20440;-81
2022/12/15 14:19:44;;;;;;;19.98;10.15;;;;;;;;;;5097702;27;20748;-80
2022/12/15 14:22:29;;;;;;;18.23;9.38;;;;;;;;;;5097883;27;20031;-81
2022/12/15 14:25:15;;;;;;;23.92;10.85;;;;;;;;;;5102382;27;20199;-80
2022/12/15 14:27:41;;;;;;;27.52;10.90;;;;;;;;;;5104491;28;20045;-81
2022/12/15 14:30:25;;;;;;;17.08;9.82;;;;;;;;;;5102414;27;20040;-80
2022/12/15 14:32:51;;;;;;;;;;;;;;;;;;5102815;28;20079;-82
2022/12/15 14:35:37;;;;;;;19.48;10.60;;;;;;;;;;5111902;27;19970;-81
2022/12/15 14:38:06;;;;;;;22.38;8.73;;;;;;;;;;5105062;27;20177;-81
2022/12/15 14:40:34;;;;;;;24.17;10.18;;;;;;;;;;5098660;27;20566;-81
2022/12/15 14:43:00;;;;;;;24.92;7.78;;;;;;;;;;5103554;27;20410;-81
2022/12/15 14:45:27;;;;;;;20.40;10.43;;;;;;;;;;5103807;28;20030;-80
2022/12/15 14:47:56;;;;;;;24.67;9.63;;;;;;;;;;5104092;28;20042;-80
2022/12/15 14:50:23;;;;;;;14.57;9.45;;;;;;;;;;5106595;27;20043;-81
2022/12/15 14:52:53;;;;;;;20.95;10.38;;;;;;;;;;5101914;27;20085;-80
2022/12/15 14:55:29;;;;;;;17.92;9.02;;;;;;;;;;5104634;27;20043;-82
2022/12/15 14:57:55;;;;;;;22.67;10.80;;;;;;;;;;5097952;27;20027;-81
2022/12/15 15:00:29;;;;;;;24.67;10.60;;;;;;;;;;5093363;27;20028;-81
2022/12/15 15:03:13;;;;;;;18.92;9.60;;;;;;;;;;5098556;27;20036;-80
2022/12/15 15:05:42;;;;;;;18.25;9.65;;;;;;;;;;5097979;27;20028;-81
2022/12/15 15:08:35;;;;;;;28.13;11.95;;;-2.20;99.90;;;;;;5091174;27;20027;-80
2022/12/15 15:11:20;;;;;;;23.65;11.18;;;;;;;;;;5087044;28;20035;-80
2022/12/15 15:13:47;;;;;;;24.98;11.10;;;;;;;;;;5094829;27;20138;-81
2022/12/15 15:16:16;;;;;;;28.52;13.80;;;;;;;;;;5094260;28;22762;-81
2022/12/15 15:18:43;;;;;;;43.97;19.05;;;;;;;;;;5105826;27;21153;-80
2022/12/15 15:21:13;;;;;;;33.05;15.52;;;;;;;;;;5105558;27;20067;-80
2022/12/15 15:23:39;;;;;;;47.17;21.60;;;;;;;;;;5110873;27;20023;-81
2022/12/15 15:26:05;;;;;;;44.88;16.60;;;;;;;;;;5106718;27;20019;-81
2022/12/15 15:28:38;;;;;;;25.70;11.95;;;;;;;;;;5098054;27;20082;-80
2022/12/15 15:31:26;;;;;;;27.98;13.65;;;;;;;;;;5101175;27;20479;-80
2022/12/15 15:33:53;;;;;;;34.08;15.13;;;;;;;;;;5105694;27;20091;-79
2022/12/15 15:36:19;;;;;;;26.15;13.50;;;;;;;;;;5104765;28;20023;-79
2022/12/15 15:38:45;;;;;;;25.08;11.18;;;;;;;;;;5115740;27;20074;-81
2022/12/15 15:41:18;;;;;;;24.50;9.88;;;;;;;;;;5106880;27;20035;-80
2022/12/15 15:43:47;;;;;;;25.60;12.75;;;;;;;;;;5110609;27;20028;-80
2022/12/15 15:46:19;;;;;;;17.73;9.10;;;;;;;;;;5120411;27;20043;-81
2022/12/15 15:48:47;;;;;;;30.83;10.25;;;;;;;;;;5104511;27;20031;-81
2022/12/15 15:51:13;;;;;;;19.83;11.80;;;;;;;;;;5101107;27;20035;-81
2022/12/15 15:53:39;;;;;;;21.45;10.68;;;;;;;;;;5118429;27;20104;-81
2022/12/15 15:56:06;;;;;;;26.58;12.70;;;;;;;;;;5103805;27;20035;-80
2022/12/15 15:58:33;;;;;;;16.48;10.63;;;;;;;;;;5103472;28;20373;-82
2022/12/15 16:00:59;;;;;;;30.65;12.63;;;;;;;;;;5108912;27;20023;-80
2022/12/15 16:03:25;;;;;;;21.63;12.20;;;;;;;;;;5107182;28;20040;-81
2022/12/15 16:05:51;;;;;;;19.42;10.27;;;;;;;;;;5109847;27;20030;-80
2022/12/15 16:08:26;;;;;;;25.25;11.70;;;-2.20;99.90;;;;;;5102439;27;20617;-81
2022/12/15 16:10:53;;;;;;;25.27;11.23;;;;;;;;;;5101593;28;20020;-80
2022/12/15 16:13:19;;;;;;;15.05;10.40;;;;;;;;;;5099375;27;20043;-80
2022/12/15 16:15:46;;;;;;;19.90;10.25;;;;;;;;;;5102458;28;20110;-80
2022/12/15 16:18:12;;;;;;;33.72;12.40;;;;;;;;;;5110024;27;20077;-79
2022/12/15 16:20:38;;;;;;;22.08;10.30;;;;;;;;;;5109309;27;20023;-79
2022/12/15 16:23:10;;;;;;;24.88;10.45;;;;;;;;;;5109801;27;20140;-78
2022/12/15 16:25:41;;;;;;;23.58;11.13;;;;;;;;;;5110201;27;20024;-79
2022/12/15 16:28:27;;;;;;;22.83;11.32;;;;;;;;;;5096354;27;20088;-80
2022/12/15 16:30:53;;;;;;;16.70;7.85;;;;;;;;;;5104120;28;20039;-79
2022/12/15 16:33:19;;;;;;;23.42;10.50;;;;;;;;;;5097526;27;20051;-80
2022/12/15 16:35:49;;;;;;;23.77;10.15;;;;;;;;;;5101637;27;20605;-80
2022/12/15 16:38:23;;;;;;;27.05;11.93;;;-3.30;99.90;;;;;;5104543;27;20062;-79
2022/12/15 16:40:50;;;;;;;16.33;9.68;;;;;;;;;;5110074;27;20555;-79
2022/12/15 16:43:19;;;;;;;19.20;11.20;;;;;;;;;;5098819;27;20042;-80
2022/12/15 16:45:47;;;;;;;29.00;12.18;;;-2.30;99.90;;;;;;5111699;27;20058;-80
2022/12/15 16:48:14;;;;;;;38.85;13.82;;;;;;;;;;5108126;27;20036;-79
2022/12/15 16:50:41;;;;;;;20.75;9.88;;;;;;;;;;5105411;28;20089;-79
2022/12/15 16:53:12;;;;;;;20.90;11.13;;;;;;;;;;5104728;28;20043;-79
2022/12/15 16:55:38;;;;;;;21.20;11.02;;;;;;;;;;5106671;27;20031;-80